sensor_id;sensor_type;location;lat;lon;timestamp;temperature;humidity
12130;DHT22;6128;59.340;18.040;2023-02-28T00:00:33;3.20;99.90
12130;DHT22;6128;59.340;18.040;2023-02-28T00:03:03;3.20;99.90
12130;DHT22;6128;59.340;18.040;2023-02-28T00:05:30;3.20;99.90
12130;DHT22;6128;59.340;18.040;2023-02-28T00:07:58;3.20;99.90
12130;DHT22;6128;59.340;18.040;2023-02-28T00:10:28;3.20;99.90
12130;DHT22;6128;59.340;18.040;2023-02-28T00:12:59;3.20;99.90
12130;DHT22;6128;59.340;18.040;2023-02-28T00:15:27;3.20;99.90
12130;DHT22;6128;59.340;18.040;2023-02-28T00:17:54;3.20;99.90
12130;DHT22;6128;59.340;18.040;2023-02-28T00:20:23;3.10;99.90
12130;DHT22;6128;59.340;18.040;2023-02-28T00:22:52;3.10;99.90
12130;DHT22;6128;59.340;18.040;2023-02-28T00:25:21;3.10;99.90
12130;DHT22;6128;59.340;18.040;2023-02-28T00:27:49;3.10;99.90
12130;DHT22;6128;59.340;18.040;2023-02-28T00:30:18;3.10;99.90
12130;DHT22;6128;59.340;18.040;2023-02-28T00:32:46;3.10;99.90
12130;DHT22;6128;59.340;18.040;2023-02-28T00:35:14;3.00;99.90
12130;DHT22;6128;59.340;18.040;2023-02-28T00:37:43;3.00;99.90
12130;DHT22;6128;59.340;18.040;2023-02-28T00:40:11;3.00;99.90
12130;DHT22;6128;59.340;18.040;2023-02-28T00:42:39;3.00;99.90
12130;DHT22;6128;59.340;18.040;2023-02-28T00:45:07;3.00;99.90
12130;DHT22;6128;59.340;18.040;2023-02-28T00:47:34;3.00;99.90
12130;DHT22;6128;59.340;18.040;2023-02-28T00:50:03;3.00;99.90
12130;DHT22;6128;59.340;18.040;2023-02-28T00:52:30;3.00;99.90
12130;DHT22;6128;59.340;18.040;2023-02-28T00:54:59;3.00;99.90
12130;DHT22;6128;59.340;18.040;2023-02-28T00:57:27;2.90;99.90
12130;DHT22;6128;59.340;18.040;2023-02-28T00:59:54;2.90;99.90
12130;DHT22;6128;59.340;18.040;2023-02-28T01:02:21;2.90;99.90
12130;DHT22;6128;59.340;18.040;2023-02-28T01:04:48;2.90;99.90
12130;DHT22;6128;59.340;18.040;2023-02-28T01:07:16;2.90;99.90
12130;DHT22;6128;59.340;18.040;2023-02-28T01:09:43;2.90;99.90
12130;DHT22;6128;59.340;18.040;2023-02-28T01:12:11;2.90;99.90
12130;DHT22;6128;59.340;18.040;2023-02-28T01:14:38;2.80;99.90
12130;DHT22;6128;59.340;18.040;2023-02-28T01:17:06;2.80;99.90
12130;DHT22;6128;59.340;18.040;2023-02-28T01:19:33;2.80;99.90
12130;DHT22;6128;59.340;18.040;2023-02-28T01:22:01;2.80;99.90
12130;DHT22;6128;59.340;18.040;2023-02-28T01:24:32;2.80;99.90
12130;DHT22;6128;59.340;18.040;2023-02-28T01:26:59;2.80;99.90
12130;DHT22;6128;59.340;18.040;2023-02-28T01:29:27;2.70;99.90
12130;DHT22;6128;59.340;18.040;2023-02-28T01:31:54;2.80;99.90
12130;DHT22;6128;59.340;18.040;2023-02-28T01:34:22;2.70;99.90
12130;DHT22;6128;59.340;18.040;2023-02-28T01:36:49;2.70;99.90
12130;DHT22;6128;59.340;18.040;2023-02-28T01:39:17;2.70;99.90
12130;DHT22;6128;59.340;18.040;2023-02-28T01:41:44;2.70;99.90
12130;DHT22;6128;59.340;18.040;2023-02-28T01:47:17;2.70;99.90
12130;DHT22;6128;59.340;18.040;2023-02-28T01:49:44;2.60;99.90
12130;DHT22;6128;59.340;18.040;2023-02-28T01:52:12;2.60;99.90
12130;DHT22;6128;59.340;18.040;2023-02-28T01:54:47;2.60;99.90
12130;DHT22;6128;59.340;18.040;2023-02-28T01:57:17;2.60;99.90
12130;DHT22;6128;59.340;18.040;2023-02-28T01:59:47;2.60;99.90
12130;DHT22;6128;59.340;18.040;2023-02-28T02:02:21;2.60;99.90
12130;DHT22;6128;59.340;18.040;2023-02-28T02:04:53;2.50;99.90
12130;DHT22;6128;59.340;18.040;2023-02-28T02:07:21;2.50;99.90
12130;DHT22;6128;59.340;18.040;2023-02-28T02:09:48;2.50;99.90
12130;DHT22;6128;59.340;18.040;2023-02-28T02:12:23;2.50;99.90
12130;DHT22;6128;59.340;18.040;2023-02-28T02:15:00;2.50;99.90
12130;DHT22;6128;59.340;18.040;2023-02-28T02:17:34;2.40;99.90
12130;DHT22;6128;59.340;18.040;2023-02-28T02:20:22;2.40;99.90
12130;DHT22;6128;59.340;18.040;2023-02-28T02:25:55;2.40;99.90
12130;DHT22;6128;59.340;18.040;2023-02-28T02:28:40;2.30;99.90
12130;DHT22;6128;59.340;18.040;2023-02-28T02:31:38;2.30;99.90
12130;DHT22;6128;59.340;18.040;2023-02-28T02:34:33;2.30;99.90
12130;DHT22;6128;59.340;18.040;2023-02-28T02:37:11;2.30;99.90
12130;DHT22;6128;59.340;18.040;2023-02-28T02:39:47;2.30;99.90
12130;DHT22;6128;59.340;18.040;2023-02-28T02:42:21;2.20;99.90
12130;DHT22;6128;59.340;18.040;2023-02-28T02:44:56;2.30;99.90
12130;DHT22;6128;59.340;18.040;2023-02-28T02:47:27;2.20;99.90
12130;DHT22;6128;59.340;18.040;2023-02-28T02:49:59;2.20;99.90
12130;DHT22;6128;59.340;18.040;2023-02-28T02:52:33;2.20;99.90
12130;DHT22;6128;59.340;18.040;2023-02-28T02:55:02;2.20;99.90
12130;DHT22;6128;59.340;18.040;2023-02-28T02:57:35;2.10;99.90
12130;DHT22;6128;59.340;18.040;2023-02-28T03:00:05;2.10;99.90
12130;DHT22;6128;59.340;18.040;2023-02-28T03:02:35;2.20;99.90
12130;DHT22;6128;59.340;18.040;2023-02-28T03:05:12;2.10;99.90
12130;DHT22;6128;59.340;18.040;2023-02-28T03:07:41;2.10;99.90
12130;DHT22;6128;59.340;18.040;2023-02-28T03:10:31;2.10;99.90
12130;DHT22;6128;59.340;18.040;2023-02-28T03:15:58;2.00;99.90
12130;DHT22;6128;59.340;18.040;2023-02-28T03:18:34;2.00;99.90
12130;DHT22;6128;59.340;18.040;2023-02-28T03:21:13;2.00;99.90
12130;DHT22;6128;59.340;18.040;2023-02-28T03:23:50;1.90;99.90
12130;DHT22;6128;59.340;18.040;2023-02-28T03:26:23;1.90;99.90
12130;DHT22;6128;59.340;18.040;2023-02-28T03:28:55;1.90;99.90
12130;DHT22;6128;59.340;18.040;2023-02-28T03:31:28;1.90;99.90
12130;DHT22;6128;59.340;18.040;2023-02-28T03:34:01;1.90;99.90
12130;DHT22;6128;59.340;18.040;2023-02-28T03:36:33;1.90;99.90
12130;DHT22;6128;59.340;18.040;2023-02-28T03:39:09;1.90;99.90
12130;DHT22;6128;59.340;18.040;2023-02-28T03:41:42;1.90;99.90
12130;DHT22;6128;59.340;18.040;2023-02-28T03:44:16;1.90;99.90
12130;DHT22;6128;59.340;18.040;2023-02-28T03:46:48;1.90;99.90
12130;DHT22;6128;59.340;18.040;2023-02-28T03:49:20;1.80;99.90
12130;DHT22;6128;59.340;18.040;2023-02-28T03:51:52;1.80;99.90
12130;DHT22;6128;59.340;18.040;2023-02-28T03:54:24;1.90;99.90
12130;DHT22;6128;59.340;18.040;2023-02-28T03:56:56;1.80;99.90
12130;DHT22;6128;59.340;18.040;2023-02-28T03:59:28;1.80;99.90
12130;DHT22;6128;59.340;18.040;2023-02-28T04:01:55;1.80;99.90
12130;DHT22;6128;59.340;18.040;2023-02-28T04:04:24;1.80;99.90
12130;DHT22;6128;59.340;18.040;2023-02-28T04:07:01;1.80;99.90
12130;DHT22;6128;59.340;18.040;2023-02-28T04:09:29;1.70;99.90
12130;DHT22;6128;59.340;18.040;2023-02-28T04:11:56;1.70;99.90
12130;DHT22;6128;59.340;18.040;2023-02-28T04:14:23;1.70;99.90
12130;DHT22;6128;59.340;18.040;2023-02-28T04:16:51;1.60;99.90
12130;DHT22;6128;59.340;18.040;2023-02-28T04:19:18;1.60;99.90
12130;DHT22;6128;59.340;18.040;2023-02-28T04:21:47;1.60;99.90
12130;DHT22;6128;59.340;18.040;2023-02-28T04:24:17;1.60;99.90
12130;DHT22;6128;59.340;18.040;2023-02-28T04:26:46;1.60;99.90
12130;DHT22;6128;59.340;18.040;2023-02-28T04:29:18;1.60;99.90
12130;DHT22;6128;59.340;18.040;2023-02-28T04:31:46;1.60;99.90
12130;DHT22;6128;59.340;18.040;2023-02-28T04:34:13;1.60;99.90
12130;DHT22;6128;59.340;18.040;2023-02-28T04:36:40;1.60;99.90
12130;DHT22;6128;59.340;18.040;2023-02-28T04:39:08;1.60;99.90
12130;DHT22;6128;59.340;18.040;2023-02-28T04:41:38;1.60;99.90
12130;DHT22;6128;59.340;18.040;2023-02-28T04:44:05;1.60;99.90
12130;DHT22;6128;59.340;18.040;2023-02-28T04:46:32;1.60;99.90
12130;DHT22;6128;59.340;18.040;2023-02-28T04:48:59;1.60;99.90
12130;DHT22;6128;59.340;18.040;2023-02-28T04:51:26;1.60;99.90
12130;DHT22;6128;59.340;18.040;2023-02-28T04:53:53;1.60;99.90
12130;DHT22;6128;59.340;18.040;2023-02-28T04:56:21;1.60;99.90
12130;DHT22;6128;59.340;18.040;2023-02-28T04:58:50;1.60;99.90
12130;DHT22;6128;59.340;18.040;2023-02-28T05:01:22;1.60;99.90
12130;DHT22;6128;59.340;18.040;2023-02-28T05:03:50;1.50;99.90
12130;DHT22;6128;59.340;18.040;2023-02-28T05:06:17;1.50;99.90
12130;DHT22;6128;59.340;18.040;2023-02-28T05:08:46;1.60;99.90
12130;DHT22;6128;59.340;18.040;2023-02-28T05:11:17;1.50;99.90
12130;DHT22;6128;59.340;18.040;2023-02-28T05:13:44;1.50;99.90
12130;DHT22;6128;59.340;18.040;2023-02-28T05:16:13;1.50;99.90
12130;DHT22;6128;59.340;18.040;2023-02-28T05:18:41;1.50;99.90
12130;DHT22;6128;59.340;18.040;2023-02-28T05:21:25;1.50;99.90
12130;DHT22;6128;59.340;18.040;2023-02-28T05:23:54;1.50;99.90
12130;DHT22;6128;59.340;18.040;2023-02-28T05:26:22;1.50;99.90
12130;DHT22;6128;59.340;18.040;2023-02-28T05:28:49;1.50;99.90
12130;DHT22;6128;59.340;18.040;2023-02-28T05:31:18;1.50;99.90
12130;DHT22;6128;59.340;18.040;2023-02-28T05:33:45;1.50;99.90
12130;DHT22;6128;59.340;18.040;2023-02-28T05:36:12;1.50;99.90
12130;DHT22;6128;59.340;18.040;2023-02-28T05:38:40;1.50;99.90
12130;DHT22;6128;59.340;18.040;2023-02-28T05:41:09;1.50;99.90
12130;DHT22;6128;59.340;18.040;2023-02-28T05:43:37;1.50;99.90
12130;DHT22;6128;59.340;18.040;2023-02-28T05:46:05;1.50;99.90
12130;DHT22;6128;59.340;18.040;2023-02-28T05:48:35;1.50;99.90
12130;DHT22;6128;59.340;18.040;2023-02-28T05:51:04;1.50;99.90
12130;DHT22;6128;59.340;18.040;2023-02-28T05:53:32;1.50;99.90
12130;DHT22;6128;59.340;18.040;2023-02-28T05:55:59;1.50;99.90
12130;DHT22;6128;59.340;18.040;2023-02-28T05:58:26;1.50;99.90
12130;DHT22;6128;59.340;18.040;2023-02-28T06:00:56;1.50;99.90
12130;DHT22;6128;59.340;18.040;2023-02-28T06:03:23;1.50;99.90
12130;DHT22;6128;59.340;18.040;2023-02-28T06:05:52;1.50;99.90
12130;DHT22;6128;59.340;18.040;2023-02-28T06:08:19;1.50;99.90
12130;DHT22;6128;59.340;18.040;2023-02-28T06:10:46;1.50;99.90
12130;DHT22;6128;59.340;18.040;2023-02-28T06:13:14;1.50;99.90
12130;DHT22;6128;59.340;18.040;2023-02-28T06:15:41;1.60;99.90
12130;DHT22;6128;59.340;18.040;2023-02-28T06:18:08;1.60;99.90
12130;DHT22;6128;59.340;18.040;2023-02-28T06:20:35;1.60;99.90
12130;DHT22;6128;59.340;18.040;2023-02-28T06:23:04;1.60;99.90
12130;DHT22;6128;59.340;18.040;2023-02-28T06:25:31;1.70;99.90
12130;DHT22;6128;59.340;18.040;2023-02-28T06:27:58;1.70;99.90
12130;DHT22;6128;59.340;18.040;2023-02-28T06:30:25;1.70;99.90
12130;DHT22;6128;59.340;18.040;2023-02-28T06:32:54;1.70;99.90
12130;DHT22;6128;59.340;18.040;2023-02-28T06:35:21;1.70;99.90
12130;DHT22;6128;59.340;18.040;2023-02-28T06:37:48;1.80;99.90
12130;DHT22;6128;59.340;18.040;2023-02-28T06:40:17;1.80;99.90
12130;DHT22;6128;59.340;18.040;2023-02-28T06:42:44;1.90;99.90
12130;DHT22;6128;59.340;18.040;2023-02-28T06:45:12;1.90;99.90
12130;DHT22;6128;59.340;18.040;2023-02-28T06:47:40;2.00;99.90
12130;DHT22;6128;59.340;18.040;2023-02-28T06:50:11;2.00;99.90
12130;DHT22;6128;59.340;18.040;2023-02-28T06:52:39;2.10;99.90
12130;DHT22;6128;59.340;18.040;2023-02-28T06:55:07;2.10;99.90
12130;DHT22;6128;59.340;18.040;2023-02-28T07:00:43;2.30;99.90
12130;DHT22;6128;59.340;18.040;2023-02-28T07:03:11;2.40;99.90
12130;DHT22;6128;59.340;18.040;2023-02-28T07:05:39;2.50;99.90
12130;DHT22;6128;59.340;18.040;2023-02-28T07:08:06;2.60;99.90
12130;DHT22;6128;59.340;18.040;2023-02-28T07:10:36;2.70;99.90
12130;DHT22;6128;59.340;18.040;2023-02-28T07:13:04;2.80;99.90
12130;DHT22;6128;59.340;18.040;2023-02-28T07:15:31;2.90;99.90
12130;DHT22;6128;59.340;18.040;2023-02-28T07:18:00;3.00;99.90
12130;DHT22;6128;59.340;18.040;2023-02-28T07:20:27;3.10;99.90
12130;DHT22;6128;59.340;18.040;2023-02-28T07:22:54;3.50;99.90
12130;DHT22;6128;59.340;18.040;2023-02-28T07:25:22;3.80;99.90
12130;DHT22;6128;59.340;18.040;2023-02-28T07:27:49;4.20;99.90
12130;DHT22;6128;59.340;18.040;2023-02-28T07:30:17;4.60;99.90
12130;DHT22;6128;59.340;18.040;2023-02-28T07:32:45;5.10;99.90
12130;DHT22;6128;59.340;18.040;2023-02-28T07:35:14;5.70;99.90
12130;DHT22;6128;59.340;18.040;2023-02-28T07:37:42;6.10;99.90
12130;DHT22;6128;59.340;18.040;2023-02-28T07:40:11;6.40;99.90
12130;DHT22;6128;59.340;18.040;2023-02-28T07:42:39;6.70;99.90
12130;DHT22;6128;59.340;18.040;2023-02-28T07:45:08;7.00;99.90
12130;DHT22;6128;59.340;18.040;2023-02-28T07:47:37;7.20;99.90
12130;DHT22;6128;59.340;18.040;2023-02-28T07:50:07;7.30;99.90
12130;DHT22;6128;59.340;18.040;2023-02-28T07:52:36;7.40;99.90
12130;DHT22;6128;59.340;18.040;2023-02-28T07:55:04;7.60;99.90
12130;DHT22;6128;59.340;18.040;2023-02-28T07:57:31;7.90;99.90
12130;DHT22;6128;59.340;18.040;2023-02-28T07:59:59;8.10;99.90
12130;DHT22;6128;59.340;18.040;2023-02-28T08:02:26;8.30;99.90
12130;DHT22;6128;59.340;18.040;2023-02-28T08:04:53;8.60;99.90
12130;DHT22;6128;59.340;18.040;2023-02-28T08:07:21;9.10;99.90
12130;DHT22;6128;59.340;18.040;2023-02-28T08:09:50;9.40;99.90
12130;DHT22;6128;59.340;18.040;2023-02-28T08:12:17;9.60;99.90
12130;DHT22;6128;59.340;18.040;2023-02-28T08:14:44;10.00;99.90
12130;DHT22;6128;59.340;18.040;2023-02-28T08:17:11;10.40;99.90
12130;DHT22;6128;59.340;18.040;2023-02-28T08:19:39;10.80;99.90
12130;DHT22;6128;59.340;18.040;2023-02-28T08:22:06;11.00;99.90
12130;DHT22;6128;59.340;18.040;2023-02-28T08:24:33;11.20;99.90
12130;DHT22;6128;59.340;18.040;2023-02-28T08:27:05;11.30;99.90
12130;DHT22;6128;59.340;18.040;2023-02-28T08:29:32;11.50;99.90
12130;DHT22;6128;59.340;18.040;2023-02-28T08:31:59;11.30;99.90
12130;DHT22;6128;59.340;18.040;2023-02-28T08:34:27;11.10;99.90
12130;DHT22;6128;59.340;18.040;2023-02-28T08:36:54;11.10;99.90
12130;DHT22;6128;59.340;18.040;2023-02-28T08:39:21;11.00;99.90
12130;DHT22;6128;59.340;18.040;2023-02-28T08:41:48;11.10;99.90
12130;DHT22;6128;59.340;18.040;2023-02-28T08:44:17;11.10;99.90
12130;DHT22;6128;59.340;18.040;2023-02-28T08:46:44;11.10;99.90
12130;DHT22;6128;59.340;18.040;2023-02-28T08:49:11;11.10;99.90
12130;DHT22;6128;59.340;18.040;2023-02-28T08:51:39;10.70;99.90
12130;DHT22;6128;59.340;18.040;2023-02-28T08:54:07;10.40;99.90
12130;DHT22;6128;59.340;18.040;2023-02-28T08:56:36;10.20;99.90
12130;DHT22;6128;59.340;18.040;2023-02-28T08:59:03;10.00;99.90
12130;DHT22;6128;59.340;18.040;2023-02-28T09:01:32;9.90;99.90
12130;DHT22;6128;59.340;18.040;2023-02-28T09:03:59;9.90;99.90
12130;DHT22;6128;59.340;18.040;2023-02-28T09:06:28;9.90;99.90
12130;DHT22;6128;59.340;18.040;2023-02-28T09:08:57;10.00;99.90
12130;DHT22;6128;59.340;18.040;2023-02-28T09:11:27;9.90;99.90
12130;DHT22;6128;59.340;18.040;2023-02-28T09:13:55;9.80;99.90
12130;DHT22;6128;59.340;18.040;2023-02-28T09:16:22;9.90;99.90
12130;DHT22;6128;59.340;18.040;2023-02-28T09:18:51;10.00;99.90
12130;DHT22;6128;59.340;18.040;2023-02-28T09:21:19;10.00;99.90
12130;DHT22;6128;59.340;18.040;2023-02-28T09:23:48;9.80;99.90
12130;DHT22;6128;59.340;18.040;2023-02-28T09:26:20;9.50;99.90
12130;DHT22;6128;59.340;18.040;2023-02-28T09:28:48;9.10;99.90
12130;DHT22;6128;59.340;18.040;2023-02-28T09:31:16;8.70;99.90
12130;DHT22;6128;59.340;18.040;2023-02-28T09:33:46;8.40;99.90
12130;DHT22;6128;59.340;18.040;2023-02-28T09:36:15;8.20;99.90
12130;DHT22;6128;59.340;18.040;2023-02-28T09:38:42;8.00;99.90
12130;DHT22;6128;59.340;18.040;2023-02-28T09:41:14;7.90;99.90
12130;DHT22;6128;59.340;18.040;2023-02-28T09:43:47;7.90;99.90
12130;DHT22;6128;59.340;18.040;2023-02-28T09:46:27;7.90;99.90
12130;DHT22;6128;59.340;18.040;2023-02-28T09:48:55;7.80;99.90
12130;DHT22;6128;59.340;18.040;2023-02-28T09:51:32;7.80;99.90
12130;DHT22;6128;59.340;18.040;2023-02-28T09:54:00;7.90;99.90
12130;DHT22;6128;59.340;18.040;2023-02-28T09:56:33;7.90;99.90
12130;DHT22;6128;59.340;18.040;2023-02-28T09:59:04;7.80;99.90
12130;DHT22;6128;59.340;18.040;2023-02-28T10:01:41;7.70;99.90
12130;DHT22;6128;59.340;18.040;2023-02-28T10:04:16;7.70;99.90
12130;DHT22;6128;59.340;18.040;2023-02-28T10:06:49;7.70;99.90
12130;DHT22;6128;59.340;18.040;2023-02-28T10:09:19;7.60;99.90
12130;DHT22;6128;59.340;18.040;2023-02-28T10:11:51;7.50;99.90
12130;DHT22;6128;59.340;18.040;2023-02-28T10:14:21;7.50;99.90
12130;DHT22;6128;59.340;18.040;2023-02-28T10:16:52;7.40;99.90
12130;DHT22;6128;59.340;18.040;2023-02-28T10:19:25;7.40;99.90
12130;DHT22;6128;59.340;18.040;2023-02-28T10:21:57;7.50;99.90
12130;DHT22;6128;59.340;18.040;2023-02-28T10:24:29;7.40;99.90
12130;DHT22;6128;59.340;18.040;2023-02-28T10:27:00;7.40;99.90
12130;DHT22;6128;59.340;18.040;2023-02-28T10:29:31;7.50;99.90
12130;DHT22;6128;59.340;18.040;2023-02-28T10:32:04;7.50;99.90
12130;DHT22;6128;59.340;18.040;2023-02-28T10:34:31;7.50;99.90
12130;DHT22;6128;59.340;18.040;2023-02-28T10:37:00;7.50;99.90
12130;DHT22;6128;59.340;18.040;2023-02-28T10:39:38;7.50;99.90
12130;DHT22;6128;59.340;18.040;2023-02-28T10:42:22;7.60;99.90
12130;DHT22;6128;59.340;18.040;2023-02-28T10:45:09;7.50;99.90
12130;DHT22;6128;59.340;18.040;2023-02-28T10:47:51;7.50;99.90
12130;DHT22;6128;59.340;18.040;2023-02-28T10:50:42;7.50;99.90
12130;DHT22;6128;59.340;18.040;2023-02-28T10:53:32;7.50;99.90
12130;DHT22;6128;59.340;18.040;2023-02-28T10:56:02;7.50;99.90
12130;DHT22;6128;59.340;18.040;2023-02-28T10:58:31;7.60;99.90
12130;DHT22;6128;59.340;18.040;2023-02-28T11:00:59;7.60;99.90
12130;DHT22;6128;59.340;18.040;2023-02-28T11:03:32;7.60;99.90
12130;DHT22;6128;59.340;18.040;2023-02-28T11:06:06;7.70;99.90
12130;DHT22;6128;59.340;18.040;2023-02-28T11:08:44;7.70;99.90
12130;DHT22;6128;59.340;18.040;2023-02-28T11:11:12;7.70;99.90
12130;DHT22;6128;59.340;18.040;2023-02-28T11:13:47;7.70;99.90
12130;DHT22;6128;59.340;18.040;2023-02-28T11:16:23;7.70;99.90
12130;DHT22;6128;59.340;18.040;2023-02-28T11:19:18;7.80;99.90
12130;DHT22;6128;59.340;18.040;2023-02-28T11:21:52;7.90;99.90
12130;DHT22;6128;59.340;18.040;2023-02-28T11:24:24;8.00;99.90
12130;DHT22;6128;59.340;18.040;2023-02-28T11:26:53;8.00;99.90
12130;DHT22;6128;59.340;18.040;2023-02-28T11:29:22;8.10;99.90
12130;DHT22;6128;59.340;18.040;2023-02-28T11:32:15;8.20;99.90
12130;DHT22;6128;59.340;18.040;2023-02-28T11:35:00;8.30;99.90
12130;DHT22;6128;59.340;18.040;2023-02-28T11:37:28;8.40;99.90
12130;DHT22;6128;59.340;18.040;2023-02-28T11:39:57;8.50;99.90
12130;DHT22;6128;59.340;18.040;2023-02-28T11:42:43;8.50;99.90
12130;DHT22;6128;59.340;18.040;2023-02-28T11:45:24;8.50;99.90
12130;DHT22;6128;59.340;18.040;2023-02-28T11:48:06;8.50;99.90
12130;DHT22;6128;59.340;18.040;2023-02-28T11:50:48;8.50;99.90
12130;DHT22;6128;59.340;18.040;2023-02-28T11:53:31;8.50;99.90
12130;DHT22;6128;59.340;18.040;2023-02-28T11:56:06;8.40;99.90
12130;DHT22;6128;59.340;18.040;2023-02-28T11:58:44;8.40;99.90
12130;DHT22;6128;59.340;18.040;2023-02-28T12:01:21;8.40;99.90
12130;DHT22;6128;59.340;18.040;2023-02-28T12:04:03;8.40;99.90
12130;DHT22;6128;59.340;18.040;2023-02-28T12:06:41;8.40;99.90
12130;DHT22;6128;59.340;18.040;2023-02-28T12:09:27;8.40;99.90
12130;DHT22;6128;59.340;18.040;2023-02-28T12:12:07;8.40;99.90
12130;DHT22;6128;59.340;18.040;2023-02-28T12:14:57;8.50;99.90
12130;DHT22;6128;59.340;18.040;2023-02-28T12:17:42;8.60;99.90
12130;DHT22;6128;59.340;18.040;2023-02-28T12:20:21;8.70;99.90
12130;DHT22;6128;59.340;18.040;2023-02-28T12:22:55;8.80;99.90
12130;DHT22;6128;59.340;18.040;2023-02-28T12:25:48;8.90;99.90
12130;DHT22;6128;59.340;18.040;2023-02-28T12:28:21;9.10;99.90
12130;DHT22;6128;59.340;18.040;2023-02-28T12:30:56;9.20;99.90
12130;DHT22;6128;59.340;18.040;2023-02-28T12:33:28;9.30;99.90
12130;DHT22;6128;59.340;18.040;2023-02-28T12:36:07;9.20;99.90
12130;DHT22;6128;59.340;18.040;2023-02-28T12:38:43;9.10;99.90
12130;DHT22;6128;59.340;18.040;2023-02-28T12:41:14;9.10;99.90
12130;DHT22;6128;59.340;18.040;2023-02-28T12:43:51;9.10;99.90
12130;DHT22;6128;59.340;18.040;2023-02-28T12:46:22;9.00;99.90
12130;DHT22;6128;59.340;18.040;2023-02-28T12:48:53;8.90;99.90
12130;DHT22;6128;59.340;18.040;2023-02-28T12:51:23;9.00;99.90
12130;DHT22;6128;59.340;18.040;2023-02-28T12:53:57;9.00;99.90
12130;DHT22;6128;59.340;18.040;2023-02-28T12:56:34;9.00;99.90
12130;DHT22;6128;59.340;18.040;2023-02-28T12:59:14;9.00;99.90
12130;DHT22;6128;59.340;18.040;2023-02-28T13:02:09;9.00;99.90
12130;DHT22;6128;59.340;18.040;2023-02-28T13:05:14;9.00;99.90
12130;DHT22;6128;59.340;18.040;2023-02-28T13:08:04;8.90;99.90
12130;DHT22;6128;59.340;18.040;2023-02-28T13:10:43;8.90;99.90
12130;DHT22;6128;59.340;18.040;2023-02-28T13:13:24;8.90;99.90
12130;DHT22;6128;59.340;18.040;2023-02-28T13:16:06;8.90;99.90
12130;DHT22;6128;59.340;18.040;2023-02-28T13:18:39;8.90;99.90
12130;DHT22;6128;59.340;18.040;2023-02-28T13:21:41;8.90;99.90
12130;DHT22;6128;59.340;18.040;2023-02-28T13:24:11;8.90;99.90
12130;DHT22;6128;59.340;18.040;2023-02-28T13:27:11;8.90;99.90
12130;DHT22;6128;59.340;18.040;2023-02-28T13:29:40;8.80;99.90
12130;DHT22;6128;59.340;18.040;2023-02-28T13:32:32;8.80;99.90
12130;DHT22;6128;59.340;18.040;2023-02-28T13:38:34;8.80;99.90
12130;DHT22;6128;59.340;18.040;2023-02-28T13:44:07;8.90;99.90
12130;DHT22;6128;59.340;18.040;2023-02-28T13:46:37;8.80;99.90
12130;DHT22;6128;59.340;18.040;2023-02-28T13:49:29;8.90;99.90
12130;DHT22;6128;59.340;18.040;2023-02-28T13:52:10;8.80;99.90
12130;DHT22;6128;59.340;18.040;2023-02-28T13:54:50;8.70;99.90
12130;DHT22;6128;59.340;18.040;2023-02-28T13:57:30;8.70;99.90
12130;DHT22;6128;59.340;18.040;2023-02-28T14:00:13;8.60;99.90
12130;DHT22;6128;59.340;18.040;2023-02-28T14:03:06;8.60;99.90
12130;DHT22;6128;59.340;18.040;2023-02-28T14:05:39;8.60;99.90
12130;DHT22;6128;59.340;18.040;2023-02-28T14:08:10;8.50;99.90
12130;DHT22;6128;59.340;18.040;2023-02-28T14:10:43;8.40;99.90
12130;DHT22;6128;59.340;18.040;2023-02-28T14:13:39;8.40;99.90
12130;DHT22;6128;59.340;18.040;2023-02-28T14:16:11;8.40;99.90
12130;DHT22;6128;59.340;18.040;2023-02-28T14:18:42;8.30;99.90
12130;DHT22;6128;59.340;18.040;2023-02-28T14:21:16;8.30;99.90
12130;DHT22;6128;59.340;18.040;2023-02-28T14:24:23;8.30;99.90
12130;DHT22;6128;59.340;18.040;2023-02-28T14:30:09;8.30;99.90
12130;DHT22;6128;59.340;18.040;2023-02-28T14:32:46;8.30;99.90
12130;DHT22;6128;59.340;18.040;2023-02-28T14:35:28;8.20;99.90
12130;DHT22;6128;59.340;18.040;2023-02-28T14:38:14;8.20;99.90
12130;DHT22;6128;59.340;18.040;2023-02-28T14:40:45;8.20;99.90
12130;DHT22;6128;59.340;18.040;2023-02-28T14:43:20;8.20;99.90
12130;DHT22;6128;59.340;18.040;2023-02-28T14:45:51;8.20;99.90
12130;DHT22;6128;59.340;18.040;2023-02-28T14:48:19;8.20;99.90
12130;DHT22;6128;59.340;18.040;2023-02-28T14:50:50;8.10;99.90
12130;DHT22;6128;59.340;18.040;2023-02-28T14:53:21;8.10;99.90
12130;DHT22;6128;59.340;18.040;2023-02-28T14:55:49;8.10;99.90
12130;DHT22;6128;59.340;18.040;2023-02-28T14:58:24;8.10;99.90
12130;DHT22;6128;59.340;18.040;2023-02-28T15:00:54;8.10;99.90
12130;DHT22;6128;59.340;18.040;2023-02-28T15:03:31;8.10;99.90
12130;DHT22;6128;59.340;18.040;2023-02-28T15:06:00;8.10;99.90
12130;DHT22;6128;59.340;18.040;2023-02-28T15:08:29;8.00;99.90
12130;DHT22;6128;59.340;18.040;2023-02-28T15:11:03;8.00;99.90
12130;DHT22;6128;59.340;18.040;2023-02-28T15:13:37;8.00;99.90
12130;DHT22;6128;59.340;18.040;2023-02-28T15:16:28;8.00;99.90
12130;DHT22;6128;59.340;18.040;2023-02-28T15:18:59;8.00;99.90
12130;DHT22;6128;59.340;18.040;2023-02-28T15:21:34;7.90;99.90
12130;DHT22;6128;59.340;18.040;2023-02-28T15:24:06;7.90;99.90
12130;DHT22;6128;59.340;18.040;2023-02-28T15:26:37;7.80;99.90
12130;DHT22;6128;59.340;18.040;2023-02-28T15:29:07;7.80;99.90
12130;DHT22;6128;59.340;18.040;2023-02-28T15:31:41;7.80;99.90
12130;DHT22;6128;59.340;18.040;2023-02-28T15:34:19;7.80;99.90
12130;DHT22;6128;59.340;18.040;2023-02-28T15:36:47;7.70;99.90
12130;DHT22;6128;59.340;18.040;2023-02-28T15:39:22;7.70;99.90
12130;DHT22;6128;59.340;18.040;2023-02-28T15:41:49;7.60;99.90
12130;DHT22;6128;59.340;18.040;2023-02-28T15:44:24;7.60;99.90
12130;DHT22;6128;59.340;18.040;2023-02-28T15:46:58;7.60;99.90
12130;DHT22;6128;59.340;18.040;2023-02-28T15:49:28;7.50;99.90
12130;DHT22;6128;59.340;18.040;2023-02-28T15:51:59;7.50;99.90
12130;DHT22;6128;59.340;18.040;2023-02-28T15:54:32;7.40;99.90
12130;DHT22;6128;59.340;18.040;2023-02-28T15:57:03;7.40;99.90
12130;DHT22;6128;59.340;18.040;2023-02-28T15:59:32;7.30;99.90
12130;DHT22;6128;59.340;18.040;2023-02-28T16:02:13;7.30;99.90
12130;DHT22;6128;59.340;18.040;2023-02-28T16:04:56;7.20;99.90
12130;DHT22;6128;59.340;18.040;2023-02-28T16:07:24;7.20;99.90
12130;DHT22;6128;59.340;18.040;2023-02-28T16:09:53;7.10;99.90
12130;DHT22;6128;59.340;18.040;2023-02-28T16:12:25;7.10;99.90
12130;DHT22;6128;59.340;18.040;2023-02-28T16:14:54;7.00;99.90
12130;DHT22;6128;59.340;18.040;2023-02-28T16:17:25;7.00;99.90
12130;DHT22;6128;59.340;18.040;2023-02-28T16:19:53;6.90;99.90
12130;DHT22;6128;59.340;18.040;2023-02-28T16:22:20;6.90;99.90
12130;DHT22;6128;59.340;18.040;2023-02-28T16:24:48;6.90;99.90
12130;DHT22;6128;59.340;18.040;2023-02-28T16:27:19;6.80;99.90
12130;DHT22;6128;59.340;18.040;2023-02-28T16:29:47;6.80;99.90
12130;DHT22;6128;59.340;18.040;2023-02-28T16:32:17;6.70;99.90
12130;DHT22;6128;59.340;18.040;2023-02-28T16:34:48;6.70;99.90
12130;DHT22;6128;59.340;18.040;2023-02-28T16:37:17;6.70;99.90